createdAt,value
2018-11-21T00:00:33.369Z,3.7
2018-11-21T00:01:33.324Z,3.75
2018-11-21T00:02:33.327Z,3.75
2018-11-21T00:03:33.311Z,3.65
2018-11-21T00:04:33.316Z,3.66
2018-11-21T00:05:33.291Z,3.66
2018-11-21T00:06:33.272Z,3.72
2018-11-21T00:07:33.241Z,3.68
2018-11-21T00:08:33.254Z,3.72
2018-11-21T00:09:33.208Z,3.75
2018-11-21T00:10:33.204Z,3.76
2018-11-21T00:11:33.175Z,3.76
2018-11-21T00:12:33.189Z,3.76
2018-11-21T00:13:33.149Z,3.84
2018-11-21T00:14:33.164Z,3.72
2018-11-21T00:15:33.120Z,3.75
2018-11-21T00:16:33.137Z,3.83
2018-11-21T00:17:32.833Z,3.84
2018-11-21T00:18:33.104Z,3.87
2018-11-21T00:19:33.067Z,3.88
2018-11-21T00:20:32.816Z,3.9
2018-11-21T00:21:33.053Z,3.87
2018-11-21T00:22:33.028Z,3.88
2018-11-21T00:23:33.004Z,3.83
2018-11-21T00:24:32.984Z,3.78
2018-11-21T00:25:32.991Z,3.76
2018-11-21T00:26:32.971Z,3.78
2018-11-21T00:27:32.967Z,3.7
2018-11-21T00:28:32.919Z,3.73
2018-11-21T00:29:32.933Z,3.69
2018-11-21T00:30:32.894Z,3.69
2018-11-21T00:31:32.949Z,3.66
2018-11-21T00:32:32.861Z,3.58
2018-11-21T00:33:32.873Z,3.6
2018-11-21T00:34:32.847Z,3.61
2018-11-21T00:35:32.814Z,3.61
2018-11-21T00:36:32.834Z,3.61
2018-11-21T00:37:32.815Z,3.58
2018-11-21T00:38:32.787Z,3.62
2018-11-21T00:39:32.771Z,3.7
2018-11-21T00:40:32.741Z,3.68
2018-11-21T00:41:32.753Z,3.7
2018-11-21T00:42:32.734Z,3.66
2018-11-21T00:43:32.474Z,3.7
2018-11-21T00:44:32.681Z,3.72
2018-11-21T00:45:32.692Z,3.68
2018-11-21T00:46:32.652Z,3.73
2018-11-21T00:47:32.672Z,3.75
2018-11-21T00:48:32.622Z,3.75
2018-11-21T00:49:32.636Z,3.69
2018-11-21T00:50:32.606Z,3.76
2018-11-21T00:51:32.605Z,3.78
2018-11-21T00:52:32.564Z,3.66
2018-11-21T00:53:32.549Z,3.68
2018-11-21T00:54:32.553Z,3.68
2018-11-21T00:55:32.551Z,3.66
2018-11-21T00:56:32.534Z,3.7
2018-11-21T00:57:32.764Z,3.72
2018-11-21T00:58:32.505Z,3.7
2018-11-21T00:59:32.486Z,3.7
2018-11-21T01:00:32.442Z,3.72
2018-11-21T01:01:32.452Z,3.76
2018-11-21T01:02:32.413Z,3.69
2018-11-21T01:03:32.424Z,3.73
2018-11-21T01:04:32.381Z,3.69
2018-11-21T01:05:32.401Z,3.65
2018-11-21T01:06:32.373Z,3.62
2018-11-21T01:07:32.366Z,3.62
2018-11-21T01:08:32.317Z,3.66
2018-11-21T01:09:32.311Z,3.61
2018-11-21T01:10:32.302Z,3.65
2018-11-21T01:11:32.305Z,3.57
2018-11-21T01:12:32.261Z,3.52
2018-11-21T01:13:32.273Z,3.54
2018-11-21T01:14:32.254Z,3.6
2018-11-21T01:15:32.245Z,3.51
2018-11-21T01:16:32.202Z,3.5
2018-11-21T01:17:32.214Z,3.48
2018-11-21T01:18:32.176Z,3.54
2018-11-21T01:19:32.185Z,3.55
2018-11-21T01:20:32.151Z,3.6
2018-11-21T01:21:32.157Z,3.61
2018-11-21T01:22:32.128Z,3.6
2018-11-21T01:23:32.124Z,3.57
2018-11-21T01:24:32.078Z,3.55
2018-11-21T01:25:32.090Z,3.57
2018-11-21T01:26:32.064Z,3.54
2018-11-21T01:27:32.112Z,3.55
2018-11-21T01:28:32.017Z,3.52
2018-11-21T01:29:32.031Z,3.6
2018-11-21T01:30:32.008Z,3.48
2018-11-21T01:31:32.010Z,3.51
2018-11-21T01:32:32.213Z,3.52
2018-11-21T01:33:31.996Z,3.58
2018-11-21T01:34:31.937Z,3.62
2018-11-21T01:35:31.943Z,3.62
2018-11-21T01:36:31.893Z,3.62
2018-11-21T01:37:31.912Z,3.48
2018-11-21T01:38:31.878Z,3.52
2018-11-21T01:39:31.890Z,3.5
2018-11-21T01:40:31.835Z,3.55
2018-11-21T01:41:31.822Z,3.61
2018-11-21T01:42:31.819Z,3.57
2018-11-21T01:43:31.827Z,3.66
2018-11-21T01:44:31.804Z,3.65
2018-11-21T01:45:31.774Z,3.75
2018-11-21T01:46:31.767Z,3.69
2018-11-21T01:47:31.731Z,3.68
2018-11-21T01:48:31.744Z,3.7
2018-11-21T01:49:31.709Z,3.58
2018-11-21T01:50:31.701Z,3.66
2018-11-21T01:51:31.703Z,3.69
2018-11-21T01:52:31.654Z,3.62
2018-11-21T01:53:31.672Z,3.57
2018-11-21T01:54:31.643Z,3.66
2018-11-21T01:55:31.644Z,3.58
2018-11-21T01:56:31.593Z,3.54
2018-11-21T01:57:31.588Z,3.62
2018-11-21T01:58:31.581Z,3.61
2018-11-21T01:59:31.579Z,3.66
2018-11-21T02:00:31.566Z,3.6
2018-11-21T02:01:31.522Z,3.68
2018-11-21T02:02:31.525Z,3.66
2018-11-21T02:03:31.747Z,3.72
2018-11-21T02:04:31.508Z,3.65
2018-11-21T02:05:31.467Z,3.61
2018-11-21T02:06:31.474Z,3.6
2018-11-21T02:07:31.434Z,3.52
2018-11-21T02:08:31.445Z,3.62
2018-11-21T02:09:31.401Z,3.55
2018-11-21T02:10:31.399Z,3.57
2018-11-21T02:11:31.376Z,3.51
2018-11-21T02:12:31.385Z,3.51
2018-11-21T02:13:31.365Z,3.52
2018-11-21T02:14:31.339Z,3.42
2018-11-21T02:15:31.309Z,3.33
2018-11-21T02:16:31.324Z,3.4
2018-11-21T02:17:31.282Z,3.4
2018-11-21T02:18:31.275Z,3.31
2018-11-21T02:19:31.253Z,3.31
2018-11-21T02:20:31.267Z,3.35
2018-11-21T02:21:31.220Z,3.39
2018-11-21T02:22:31.236Z,3.36
2018-11-21T02:23:31.191Z,3.26
2018-11-21T02:24:31.217Z,3.24
2018-11-21T02:25:31.152Z,3.31
2018-11-21T02:26:31.166Z,3.29
2018-11-21T02:27:31.128Z,3.43
2018-11-21T02:28:31.141Z,3.33
2018-11-21T02:29:31.120Z,3.26
2018-11-21T02:30:31.102Z,3.28
2018-11-21T02:31:31.070Z,3.28
2018-11-21T02:32:31.049Z,3.28
2018-11-21T02:33:31.063Z,3.32
2018-11-21T02:34:31.289Z,3.26
2018-11-21T02:35:31.034Z,3.29
2018-11-21T02:36:30.990Z,3.29
2018-11-21T02:37:31.015Z,3.31
2018-11-21T02:38:30.954Z,3.28
2018-11-21T02:39:30.994Z,3.35
2018-11-21T02:40:30.924Z,3.29
2018-11-21T02:41:30.941Z,3.2
2018-11-21T02:42:30.912Z,3.21
2018-11-21T02:43:30.901Z,3.2
2018-11-21T02:44:30.898Z,3.35
2018-11-21T02:45:30.877Z,3.35
2018-11-21T02:46:30.896Z,3.21
2018-11-21T02:47:30.823Z,3.24
2018-11-21T02:48:30.805Z,3.21
2018-11-21T02:49:30.818Z,3.15
2018-11-21T02:50:30.799Z,3.24
2018-11-21T02:51:30.791Z,3.26
2018-11-21T02:52:30.742Z,3.24
2018-11-21T02:53:30.770Z,3.26
2018-11-21T02:54:30.711Z,3.26
2018-11-21T02:55:30.731Z,3.24
2018-11-21T02:56:30.685Z,3.31
2018-11-21T02:57:30.698Z,3.23
2018-11-21T02:58:30.664Z,3.14
2018-11-21T02:59:30.671Z,3.17
2018-11-21T03:00:30.627Z,3.21
2018-11-21T03:01:30.612Z,3.18
2018-11-21T03:02:30.351Z,3.11
2018-11-21T03:03:30.605Z,3.18
2018-11-21T03:04:30.599Z,3.24
2018-11-21T03:05:30.547Z,3.2
2018-11-21T03:06:30.549Z,3.18
2018-11-21T03:07:30.545Z,3.17
2018-11-21T03:08:30.499Z,3.23
2018-11-21T03:09:30.508Z,3.23
2018-11-21T03:10:30.470Z,3.1
2018-11-21T03:11:30.483Z,3.23
2018-11-21T03:12:30.433Z,3.23
2018-11-21T03:13:33.251Z,3.29
2018-11-21T03:14:30.420Z,3.24
2018-11-21T03:15:30.421Z,3.18
2018-11-21T03:16:30.374Z,3.21
2018-11-21T03:17:30.362Z,3.18
2018-11-21T03:18:30.356Z,3.21
2018-11-21T03:19:30.358Z,3.21
2018-11-21T03:20:30.344Z,3.23
2018-11-21T03:21:30.298Z,3.18
2018-11-21T03:22:30.297Z,3.17
2018-11-21T03:23:30.265Z,3.18
2018-11-21T03:24:30.283Z,3.23
2018-11-21T03:25:30.249Z,3.26
2018-11-21T03:26:30.260Z,3.18
2018-11-21T03:27:30.206Z,3.21
2018-11-21T03:28:30.220Z,3.08
2018-11-21T03:29:30.179Z,3.21
2018-11-21T03:30:30.186Z,3.28
2018-11-21T03:31:30.165Z,3.21
2018-11-21T03:32:30.175Z,3.18
2018-11-21T03:33:30.119Z,3.2
2018-11-21T03:34:30.114Z,3.17
2018-11-21T03:35:30.112Z,3.08
2018-11-21T03:36:30.107Z,3.18
2018-11-21T03:37:30.061Z,3.15
2018-11-21T03:38:30.049Z,3.1
2018-11-21T03:39:30.027Z,3.13
2018-11-21T03:40:30.036Z,3.15
2018-11-21T03:41:29.991Z,3.2
2018-11-21T03:42:30.047Z,3.14
2018-11-21T03:43:29.958Z,3.15
2018-11-21T03:44:29.973Z,3.08
2018-11-21T03:45:29.925Z,3.1
2018-11-21T03:46:29.933Z,3.1
2018-11-21T03:47:29.903Z,3.13
2018-11-21T03:48:29.911Z,3.13
2018-11-21T03:49:29.898Z,3.11
2018-11-21T03:50:29.871Z,3.08
2018-11-21T03:51:29.848Z,3.15
2018-11-21T03:52:29.821Z,3.24
2018-11-21T03:53:29.832Z,3.21
2018-11-21T03:54:29.806Z,3.2
2018-11-21T03:55:29.813Z,3.21
2018-11-21T03:56:29.756Z,3.21
2018-11-21T03:57:29.513Z,3.18
2018-11-21T03:58:29.751Z,3.18
2018-11-21T03:59:29.459Z,3.18
2018-11-21T04:00:29.727Z,3.24
2018-11-21T04:01:29.686Z,3.18
2018-11-21T04:02:29.679Z,3.17
2018-11-21T04:03:29.649Z,3.11
2018-11-21T04:04:29.671Z,3.21
2018-11-21T04:05:29.644Z,3.14
2018-11-21T04:06:29.622Z,3.18
2018-11-21T04:07:29.586Z,3.1
2018-11-21T04:08:29.826Z,3.13
2018-11-21T04:09:29.585Z,3.06
2018-11-21T04:10:29.555Z,3.17
2018-11-21T04:11:29.556Z,3.05
2018-11-21T04:12:29.515Z,3.03
2018-11-21T04:13:29.523Z,3.03
2018-11-21T04:14:29.489Z,2.99
2018-11-21T04:15:29.494Z,3.02
2018-11-21T04:16:29.454Z,2.97
2018-11-21T04:17:29.465Z,2.96
2018-11-21T04:18:29.431Z,2.96
2018-11-21T04:19:29.444Z,3
2018-11-21T04:20:29.396Z,2.95
2018-11-21T04:21:29.379Z,2.97
2018-11-21T04:22:29.375Z,2.92
2018-11-21T04:23:29.379Z,2.92
2018-11-21T04:24:29.325Z,2.82
2018-11-21T04:25:29.333Z,2.85
2018-11-21T04:26:29.310Z,2.82
2018-11-21T04:27:29.313Z,2.84
2018-11-21T04:28:29.260Z,2.85
2018-11-21T04:29:29.276Z,2.95
2018-11-21T04:30:29.230Z,2.87
2018-11-21T04:31:29.265Z,2.84
2018-11-21T04:32:29.198Z,2.92
2018-11-21T04:33:29.226Z,2.84
2018-11-21T04:34:29.185Z,2.99
2018-11-21T04:35:29.193Z,2.95
2018-11-21T04:36:29.136Z,2.87
2018-11-21T04:37:29.150Z,2.93
2018-11-21T04:38:29.124Z,2.93
2018-11-21T04:39:29.341Z,3.1
2018-11-21T04:40:29.075Z,3.02
2018-11-21T04:41:29.089Z,3.06
2018-11-21T04:42:29.062Z,3.14
2018-11-21T04:43:29.062Z,3.11
2018-11-21T04:44:28.763Z,3.13
2018-11-21T04:45:29.049Z,3.08
2018-11-21T04:46:28.988Z,3.1
2018-11-21T04:47:28.999Z,3.13
2018-11-21T04:48:28.954Z,3.06
2018-11-21T04:49:28.960Z,3.17
2018-11-21T04:50:28.942Z,3.08
2018-11-21T04:51:28.902Z,3.14
2018-11-21T04:52:28.919Z,3.08
2018-11-21T04:53:28.903Z,3.17
2018-11-21T04:54:28.882Z,3.08
2018-11-21T04:55:28.840Z,3.1
2018-11-21T04:56:28.830Z,3.18
2018-11-21T04:57:28.837Z,3.23
2018-11-21T04:58:28.820Z,3.18
2018-11-21T04:59:28.810Z,3.17
2018-11-21T05:00:28.766Z,3.23
2018-11-21T05:01:28.774Z,3.28
2018-11-21T05:02:28.732Z,3.21
2018-11-21T05:03:28.770Z,3.24
2018-11-21T05:04:28.455Z,3.15
2018-11-21T05:05:28.720Z,3.23
2018-11-21T05:06:28.684Z,3.08
2018-11-21T05:07:28.694Z,3.06
2018-11-21T05:08:28.647Z,3.2
2018-11-21T05:09:28.628Z,3.13
2018-11-21T05:10:28.877Z,3.17
2018-11-21T05:11:28.631Z,3.06
2018-11-21T05:12:28.620Z,3.2
2018-11-21T05:13:28.577Z,3.17
2018-11-21T05:14:28.561Z,3.15
2018-11-21T05:15:28.569Z,3.08
2018-11-21T05:16:28.519Z,3.21
2018-11-21T05:17:28.566Z,3.24
2018-11-21T05:18:28.486Z,3.29
2018-11-21T05:19:28.503Z,3.39
2018-11-21T05:20:28.458Z,3.39
2018-11-21T05:21:28.471Z,3.28
2018-11-21T05:22:28.435Z,3.26
2018-11-21T05:23:28.449Z,3.32
2018-11-21T05:24:28.392Z,3.4
2018-11-21T05:25:28.383Z,3.28
2018-11-21T05:26:28.375Z,3.35
2018-11-21T05:27:28.377Z,3.45
2018-11-21T05:28:28.106Z,3.45
2018-11-21T05:29:28.321Z,3.45
2018-11-21T05:30:28.313Z,3.45
2018-11-21T05:31:28.288Z,3.39
2018-11-21T05:32:28.324Z,3.48
2018-11-21T05:33:28.261Z,3.5
2018-11-21T05:34:28.271Z,3.52
2018-11-21T05:35:28.225Z,3.48
2018-11-21T05:36:28.242Z,3.48
2018-11-21T05:37:28.195Z,3.36
2018-11-21T05:38:28.196Z,3.33
2018-11-21T05:39:28.170Z,3.48
2018-11-21T05:40:28.179Z,3.43
2018-11-21T05:41:28.135Z,3.36
2018-11-21T05:42:28.128Z,3.36
2018-11-21T05:43:28.136Z,3.36
2018-11-21T05:44:33.799Z,3.31
2018-11-21T05:45:28.073Z,3.33
2018-11-21T05:46:28.069Z,3.36
2018-11-21T05:47:28.045Z,3.33
2018-11-21T05:48:28.056Z,3.31
2018-11-21T05:49:28.014Z,3.29
2018-11-21T05:50:28.030Z,3.28
2018-11-21T05:51:27.983Z,3.28
2018-11-21T05:52:27.999Z,3.28
2018-11-21T05:53:27.944Z,3.29
2018-11-21T05:54:27.953Z,3.31
2018-11-21T05:55:27.920Z,3.28
2018-11-21T05:56:27.939Z,3.36
2018-11-21T05:57:27.922Z,3.32
2018-11-21T05:58:27.890Z,3.35
2018-11-21T05:59:27.858Z,3.35
2018-11-21T06:00:27.840Z,3.21
2018-11-21T06:01:27.852Z,3.32
2018-11-21T06:02:27.833Z,3.29
2018-11-21T06:03:27.826Z,3.29
2018-11-21T06:04:27.778Z,3.26
2018-11-21T06:05:27.835Z,3.26
2018-11-21T06:06:27.764Z,3.33
2018-11-21T06:07:27.733Z,3.26
2018-11-21T06:08:27.757Z,3.26
2018-11-21T06:09:27.724Z,3.32
2018-11-21T06:10:27.703Z,3.43
2018-11-21T06:11:27.671Z,3.35
2018-11-21T06:12:27.689Z,3.43
2018-11-21T06:13:27.672Z,3.39
2018-11-21T06:14:27.646Z,3.42
2018-11-21T06:15:27.609Z,3.29
2018-11-21T06:16:27.597Z,3.29
2018-11-21T06:17:27.618Z,3.28
2018-11-21T06:18:27.582Z,3.28
2018-11-21T06:19:27.577Z,3.28
2018-11-21T06:20:27.540Z,3.29
2018-11-21T06:21:27.543Z,3.33
2018-11-21T06:22:27.504Z,3.23
2018-11-21T06:23:27.521Z,3.31
2018-11-21T06:24:27.470Z,3.26
2018-11-21T06:25:27.492Z,3.33
2018-11-21T06:26:27.453Z,3.31
2018-11-21T06:27:27.457Z,3.31
2018-11-21T06:28:27.412Z,3.29
2018-11-21T06:29:27.402Z,3.39
2018-11-21T06:30:27.142Z,3.35
2018-11-21T06:31:27.396Z,3.39
2018-11-21T06:32:27.357Z,3.24
2018-11-21T06:33:27.361Z,3.31
2018-11-21T06:34:32.711Z,3.23
2018-11-21T06:35:27.338Z,3.24
2018-11-21T06:36:27.286Z,3.29
2018-11-21T06:37:27.305Z,3.29
2018-11-21T06:38:27.256Z,3.29
2018-11-21T06:39:27.278Z,3.18
2018-11-21T06:40:27.245Z,3.32
2018-11-21T06:41:27.246Z,3.4
2018-11-21T06:42:27.208Z,3.29
2018-11-21T06:43:27.214Z,3.4
2018-11-21T06:44:27.417Z,3.32
2018-11-21T06:45:27.160Z,3.31
2018-11-21T06:46:27.154Z,3.28
2018-11-21T06:47:27.151Z,3.43
2018-11-21T06:48:27.143Z,3.29
2018-11-21T06:49:27.093Z,3.29
2018-11-21T06:50:27.088Z,3.28
2018-11-21T06:51:27.058Z,3.31
2018-11-21T06:52:27.106Z,3.4
2018-11-21T06:53:27.030Z,3.31
2018-11-21T06:54:27.046Z,3.4
2018-11-21T06:55:27.037Z,3.45
2018-11-21T06:56:27.016Z,3.5
2018-11-21T06:57:26.975Z,3.51
2018-11-21T06:58:26.968Z,3.48
2018-11-21T06:59:26.973Z,3.54
2018-11-21T07:00:26.921Z,3.48
2018-11-21T07:01:26.909Z,3.43
2018-11-21T07:02:26.913Z,3.51
2018-11-21T07:03:26.905Z,3.45
2018-11-21T07:04:26.891Z,3.45
2018-11-21T07:05:26.851Z,3.57
2018-11-21T07:06:26.848Z,3.48
2018-11-21T07:07:26.814Z,3.42
2018-11-21T07:08:26.832Z,3.42
2018-11-21T07:09:26.826Z,3.54
2018-11-21T07:10:26.800Z,3.48
2018-11-21T07:11:26.751Z,3.48
2018-11-21T07:12:26.771Z,3.51
2018-11-21T07:13:26.722Z,3.47
2018-11-21T07:14:26.723Z,3.54
2018-11-21T07:15:26.947Z,3.57
2018-11-21T07:16:26.719Z,3.55
2018-11-21T07:17:26.688Z,3.51
2018-11-21T07:18:26.668Z,3.42
2018-11-21T07:19:26.631Z,3.52
2018-11-21T07:20:26.621Z,3.51
2018-11-21T07:21:26.629Z,3.54
2018-11-21T07:22:26.602Z,3.51
2018-11-21T07:23:26.580Z,3.52
2018-11-21T07:24:28.856Z,3.52
2018-11-21T07:25:26.568Z,3.51
2018-11-21T07:26:26.616Z,3.54
2018-11-21T07:27:26.514Z,3.58
2018-11-21T07:28:26.530Z,3.48
2018-11-21T07:29:26.484Z,3.48
2018-11-21T07:30:26.483Z,3.39
2018-11-21T07:31:26.448Z,3.35
2018-11-21T07:32:26.466Z,3.43
2018-11-21T07:33:26.448Z,3.43
2018-11-21T07:34:26.436Z,3.48
2018-11-21T07:35:26.389Z,3.52
2018-11-21T07:36:26.383Z,3.48
2018-11-21T07:37:26.386Z,3.4
2018-11-21T07:38:26.361Z,3.33
2018-11-21T07:39:26.363Z,3.48
2018-11-21T07:40:26.312Z,3.48
2018-11-21T07:41:26.327Z,3.55
2018-11-21T07:42:27.076Z,3.52
2018-11-21T07:43:26.305Z,3.62
2018-11-21T07:44:26.255Z,3.61
2018-11-21T07:45:26.283Z,3.62
2018-11-21T07:46:26.489Z,3.66
2018-11-21T07:47:31.370Z,3.57
2018-11-21T07:48:26.192Z,3.68
2018-11-21T07:49:26.208Z,3.78
2018-11-21T07:50:26.189Z,3.72
2018-11-21T07:51:26.152Z,3.73
2018-11-21T07:52:26.136Z,3.72
2018-11-21T07:53:26.146Z,3.66
2018-11-21T07:54:26.125Z,3.79
2018-11-21T07:55:26.121Z,3.83
2018-11-21T07:56:26.074Z,3.73
2018-11-21T07:57:27.074Z,3.73
2018-11-21T07:58:26.044Z,3.76
2018-11-21T07:59:26.064Z,3.72
2018-11-21T08:00:26.012Z,3.75
2018-11-21T08:01:26.032Z,3.75
2018-11-21T08:02:26.005Z,3.9
2018-11-21T08:03:25.972Z,3.93
2018-11-21T08:04:25.991Z,3.97
2018-11-21T08:05:26.010Z,4.09
2018-11-21T08:06:25.943Z,4.23
2018-11-21T08:07:25.910Z,4.24
2018-11-21T08:08:25.897Z,4.2
2018-11-21T08:09:25.911Z,4.08
2018-11-21T08:10:25.885Z,4.08
2018-11-21T08:11:25.887Z,4.11
2018-11-21T08:12:25.836Z,4.15
2018-11-21T08:13:25.854Z,4.15
2018-11-21T08:14:25.828Z,4.12
2018-11-21T08:15:25.794Z,4.05
2018-11-21T08:16:25.813Z,4.14
2018-11-21T08:17:25.769Z,4.06
2018-11-21T08:18:25.773Z,4.08
2018-11-21T08:19:25.790Z,4.09
2018-11-21T08:20:25.757Z,4.15
2018-11-21T08:21:25.733Z,4.08
2018-11-21T08:22:25.708Z,4.05
2018-11-21T08:23:25.680Z,4.06
2018-11-21T08:24:25.670Z,4
2018-11-21T08:25:25.683Z,3.98
2018-11-21T08:26:25.658Z,4.12
2018-11-21T08:27:25.660Z,4.15
2018-11-21T08:28:25.619Z,4.22
2018-11-21T08:29:25.619Z,4.26
2018-11-21T08:30:25.576Z,4.33
2018-11-21T08:31:25.602Z,4.24
2018-11-21T08:32:25.553Z,4.29
2018-11-21T08:33:25.573Z,4.15
2018-11-21T08:34:25.533Z,4.14
2018-11-21T08:35:25.543Z,4.18
2018-11-21T08:36:25.493Z,4.12
2018-11-21T08:37:25.482Z,4.14
2018-11-21T08:38:25.225Z,4.12
2018-11-21T08:39:25.481Z,4.12
2018-11-21T08:40:25.432Z,4.09
2018-11-21T08:41:25.446Z,4.18
2018-11-21T08:42:25.429Z,4.05
2018-11-21T08:43:25.426Z,4.14
2018-11-21T08:44:25.380Z,4.2
2018-11-21T08:45:25.135Z,4.12
2018-11-21T08:46:25.347Z,4.23
2018-11-21T08:47:25.367Z,4.26
2018-11-21T08:48:25.316Z,4.32
2018-11-21T08:49:25.347Z,4.3
2018-11-21T08:50:25.303Z,4.29
2018-11-21T08:51:25.306Z,4.24
2018-11-21T08:52:25.261Z,4.26
2018-11-21T08:53:25.254Z,4.27
2018-11-21T08:54:25.251Z,4.22
2018-11-21T08:55:25.255Z,4.24
2018-11-21T08:56:25.235Z,4.22
2018-11-21T08:57:25.192Z,4.18
2018-11-21T08:58:25.187Z,4.09
2018-11-21T08:59:25.159Z,4.2
2018-11-21T09:00:25.175Z,4.09
2018-11-21T09:01:25.131Z,4.11
2018-11-21T09:02:25.149Z,4.15
2018-11-21T09:03:25.105Z,4.11
2018-11-21T09:04:25.121Z,4.14
2018-11-21T09:05:25.079Z,4.2
2018-11-21T09:06:25.071Z,4.24
2018-11-21T09:07:25.114Z,4.27
2018-11-21T09:08:25.031Z,4.27
2018-11-21T09:09:25.024Z,4.27
2018-11-21T09:10:25.017Z,4.33
2018-11-21T09:11:24.805Z,4.23
2018-11-21T09:12:25.006Z,4.27
2018-11-21T09:13:24.961Z,4.26
2018-11-21T09:14:24.959Z,4.16
2018-11-21T09:15:24.932Z,4.18
2018-11-21T09:16:24.952Z,4.16
2018-11-21T09:17:24.909Z,4.22
2018-11-21T09:18:24.918Z,4.18
2018-11-21T09:19:24.879Z,4.08
2018-11-21T09:20:25.139Z,4.15
2018-11-21T09:21:24.841Z,4.18
2018-11-21T09:22:24.888Z,4.16
2018-11-21T09:23:24.817Z,4.29
2018-11-21T09:24:24.837Z,4.34
2018-11-21T09:25:24.813Z,4.41
2018-11-21T09:26:24.790Z,4.4
2018-11-21T09:27:24.758Z,4.34
2018-11-21T09:28:24.746Z,4.45
2018-11-21T09:29:25.090Z,4.51
2018-11-21T09:30:24.733Z,4.48
2018-11-21T09:31:24.702Z,4.5
2018-11-21T09:32:24.718Z,4.58
2018-11-21T09:33:24.682Z,4.48
2018-11-21T09:34:24.692Z,4.45
2018-11-21T09:35:24.646Z,4.54
2018-11-21T09:36:24.664Z,4.66
2018-11-21T09:37:24.616Z,4.52
2018-11-21T09:38:24.619Z,4.55
2018-11-21T09:39:24.590Z,4.5
2018-11-21T09:40:24.602Z,4.51
2018-11-21T09:41:24.591Z,4.5
2018-11-21T09:42:24.560Z,4.5
2018-11-21T09:43:24.527Z,4.5
2018-11-21T09:44:24.549Z,4.51
2018-11-21T09:45:24.508Z,4.4
2018-11-21T09:46:24.546Z,4.4
2018-11-21T09:47:24.472Z,4.24
2018-11-21T09:48:24.495Z,4.26
2018-11-21T09:49:24.447Z,4.24
2018-11-21T09:50:24.464Z,4.29
2018-11-21T09:51:24.666Z,4.27
2018-11-21T09:52:24.435Z,4.32
2018-11-21T09:53:24.393Z,4.37
2018-11-21T09:54:24.393Z,4.29
2018-11-21T09:55:24.361Z,4.29
2018-11-21T09:56:24.377Z,4.16
2018-11-21T09:57:24.337Z,4.15
2018-11-21T09:58:24.330Z,4.12
2018-11-21T09:59:25.512Z,4.23
2018-11-21T10:00:24.327Z,4.11
2018-11-21T10:01:24.277Z,4.11
2018-11-21T10:02:24.271Z,4.08
2018-11-21T10:03:24.244Z,4.08
2018-11-21T10:04:24.260Z,4.15
2018-11-21T10:05:23.968Z,4.14
2018-11-21T10:06:24.237Z,4.12
2018-11-21T10:07:24.188Z,4.12
2018-11-21T10:08:24.203Z,4.09
2018-11-21T10:09:24.157Z,4.08
2018-11-21T10:10:24.160Z,4.05
2018-11-21T10:11:24.128Z,4.02
2018-11-21T10:12:24.153Z,4.11
2018-11-21T10:13:24.128Z,4.09
2018-11-21T10:14:24.101Z,4.04
2018-11-21T10:15:24.069Z,4.06
2018-11-21T10:16:24.062Z,4.04
2018-11-21T10:17:24.067Z,4.04
2018-11-21T10:18:24.045Z,4.05
2018-11-21T10:19:24.043Z,4.06
2018-11-21T10:20:23.996Z,4.09
2018-11-21T10:21:24.007Z,4.04
2018-11-21T10:22:24.274Z,4.09
2018-11-21T10:23:23.959Z,3.93
2018-11-21T10:24:23.970Z,3.96
2018-11-21T10:25:23.924Z,3.88
2018-11-21T10:26:23.931Z,3.91
2018-11-21T10:27:23.645Z,3.93
2018-11-21T10:28:23.915Z,3.91
2018-11-21T10:29:23.899Z,4.05
2018-11-21T10:30:23.873Z,3.93
2018-11-21T10:31:23.834Z,3.83
2018-11-21T10:32:23.828Z,3.93
2018-11-21T10:33:23.832Z,3.91
2018-11-21T10:34:23.808Z,3.88
2018-11-21T10:35:23.809Z,3.91
2018-11-21T10:36:23.764Z,3.83
2018-11-21T10:37:23.777Z,3.84
2018-11-21T10:38:23.744Z,3.9
2018-11-21T10:39:23.752Z,3.76
2018-11-21T10:40:23.702Z,3.88
2018-11-21T10:41:23.719Z,3.91
2018-11-21T10:42:23.695Z,3.86
2018-11-21T10:43:26.418Z,3.83
2018-11-21T10:44:23.648Z,3.72
2018-11-21T10:45:23.642Z,3.78
2018-11-21T10:46:23.629Z,3.84
2018-11-21T10:47:23.631Z,3.88
2018-11-21T10:48:23.583Z,3.91
2018-11-21T10:49:23.596Z,3.91
2018-11-21T10:50:23.586Z,3.98
2018-11-21T10:51:23.577Z,3.97
2018-11-21T10:52:23.528Z,4
2018-11-21T10:53:23.791Z,3.97
2018-11-21T10:54:23.495Z,3.98
2018-11-21T10:55:23.519Z,3.91
2018-11-21T10:56:23.465Z,3.93
2018-11-21T10:57:23.488Z,4
2018-11-21T10:58:23.457Z,4.04
2018-11-21T10:59:23.469Z,4.08
2018-11-21T11:00:23.413Z,3.98
2018-11-21T11:01:23.402Z,4.06
2018-11-21T11:02:23.399Z,4.04
2018-11-21T11:03:23.401Z,4.08
2018-11-21T11:04:23.384Z,4.04
2018-11-21T11:05:23.396Z,3.97
2018-11-21T11:06:23.338Z,3.94
2018-11-21T11:07:23.306Z,3.98
2018-11-21T11:08:23.325Z,4.04
2018-11-21T11:09:23.282Z,4.11
2018-11-21T11:10:23.295Z,4
2018-11-21T11:11:23.251Z,4.05
2018-11-21T11:12:23.270Z,4.09
2018-11-21T11:13:23.227Z,4.05
2018-11-21T11:14:23.219Z,4.11
2018-11-21T11:15:23.222Z,4.16
2018-11-21T11:16:23.188Z,4.16
2018-11-21T11:17:23.172Z,4.23
2018-11-21T11:18:23.167Z,4.32
2018-11-21T11:19:23.167Z,4.44
2018-11-21T11:20:23.156Z,4.5
2018-11-21T11:21:23.113Z,4.55
2018-11-21T11:22:23.109Z,4.65
2018-11-21T11:23:23.078Z,4.67
2018-11-21T11:24:23.096Z,4.7
2018-11-21T11:25:23.057Z,4.75
2018-11-21T11:26:23.050Z,4.69
2018-11-21T11:27:23.053Z,4.63
2018-11-21T11:28:23.006Z,4.67
2018-11-21T11:29:23.026Z,4.73
2018-11-21T11:30:22.995Z,4.82
2018-11-21T11:31:22.997Z,4.88
2018-11-21T11:32:22.949Z,4.8
2018-11-21T11:33:22.947Z,4.78
2018-11-21T11:34:22.941Z,4.82
2018-11-21T11:35:22.943Z,4.75
2018-11-21T11:36:22.929Z,4.8
2018-11-21T11:37:22.885Z,4.67
2018-11-21T11:38:22.881Z,4.72
2018-11-21T11:39:22.888Z,4.67
2018-11-21T11:40:22.842Z,4.65
2018-11-21T11:41:22.860Z,4.72
2018-11-21T11:42:22.816Z,4.7
2018-11-21T11:43:22.835Z,4.84
2018-11-21T11:44:22.786Z,4.7
2018-11-21T11:45:22.811Z,4.8
2018-11-21T11:46:22.777Z,4.69
2018-11-21T11:47:22.779Z,4.66
2018-11-21T11:48:22.731Z,4.8
2018-11-21T11:49:22.727Z,4.62
2018-11-21T11:50:22.719Z,4.6
2018-11-21T11:51:22.724Z,4.6
2018-11-21T11:52:22.707Z,4.55
2018-11-21T11:53:22.669Z,4.54
2018-11-21T11:54:22.403Z,4.5
2018-11-21T11:55:22.631Z,4.5
2018-11-21T11:56:22.653Z,4.45
2018-11-21T11:57:22.606Z,4.59
2018-11-21T11:58:22.621Z,4.58
2018-11-21T11:59:22.577Z,4.65
2018-11-21T12:00:22.607Z,4.7
2018-11-21T12:01:22.551Z,4.58
2018-11-21T12:02:22.303Z,4.58
2018-11-21T12:03:22.521Z,4.66
2018-11-21T12:04:22.543Z,4.59
2018-11-21T12:05:22.498Z,4.65
2018-11-21T12:06:22.494Z,4.65
2018-11-21T12:07:22.506Z,4.6
2018-11-21T12:08:22.480Z,4.66
2018-11-21T12:09:22.443Z,4.54
2018-11-21T12:10:22.442Z,4.55
2018-11-21T12:11:22.416Z,4.55
2018-11-21T12:12:22.431Z,4.52
2018-11-21T12:13:22.385Z,4.51
2018-11-21T12:14:22.397Z,4.52
2018-11-21T12:15:22.351Z,4.5
2018-11-21T12:16:22.369Z,4.48
2018-11-21T12:17:22.328Z,4.36
2018-11-21T12:18:22.328Z,4.36
2018-11-21T12:19:22.301Z,4.32
2018-11-21T12:20:22.312Z,4.33
2018-11-21T12:21:22.301Z,4.32
2018-11-21T12:22:22.271Z,4.27
2018-11-21T12:23:22.238Z,4.3
2018-11-21T12:24:22.227Z,4.24
2018-11-21T12:25:22.242Z,4.24
2018-11-21T12:26:22.212Z,4.18
2018-11-21T12:27:22.469Z,4.09
2018-11-21T12:28:22.193Z,4.12
2018-11-21T12:29:22.185Z,4.12
2018-11-21T12:30:22.162Z,4.06
2018-11-21T12:31:22.121Z,4.15
2018-11-21T12:32:22.142Z,4.12
2018-11-21T12:33:22.114Z,3.97
2018-11-21T12:34:22.101Z,4
2018-11-21T12:35:22.077Z,3.9
2018-11-21T12:36:22.088Z,3.98
2018-11-21T12:37:22.072Z,3.93
2018-11-21T12:38:22.040Z,3.91
2018-11-21T12:39:22.006Z,3.9
2018-11-21T12:40:21.999Z,3.96
2018-11-21T12:41:22.008Z,4.04
2018-11-21T12:42:21.980Z,4.06
2018-11-21T12:43:21.992Z,4.08
2018-11-21T12:44:21.938Z,4.08
2018-11-21T12:45:21.953Z,3.96
2018-11-21T12:46:21.909Z,3.97
2018-11-21T12:47:21.928Z,3.94
2018-11-21T12:48:21.898Z,3.94
2018-11-21T12:49:21.901Z,3.93
2018-11-21T12:50:21.862Z,4.05
2018-11-21T12:51:21.868Z,4.15
2018-11-21T12:52:21.818Z,4.11
2018-11-21T12:53:21.807Z,4.12
2018-11-21T12:54:21.802Z,4.2
2018-11-21T12:55:21.808Z,4.16
2018-11-21T12:56:21.762Z,4.05
2018-11-21T12:57:21.777Z,4.22
2018-11-21T12:58:21.750Z,4.18
2018-11-21T12:59:21.752Z,4.14
2018-11-21T13:00:21.706Z,4.3
2018-11-21T13:01:21.720Z,4.32
2018-11-21T13:02:21.679Z,4.29
2018-11-21T13:03:21.695Z,4.3
2018-11-21T13:04:21.649Z,4.36
2018-11-21T13:05:21.664Z,4.26
2018-11-21T13:06:21.630Z,4.4
2018-11-21T13:07:21.635Z,4.44
2018-11-21T13:08:21.589Z,4.41
2018-11-21T13:09:21.583Z,4.44
2018-11-21T13:10:21.574Z,4.42
2018-11-21T13:11:21.578Z,4.45
2018-11-21T13:12:21.565Z,4.32
2018-11-21T13:13:21.520Z,4.37
2018-11-21T13:14:21.521Z,4.27
2018-11-21T13:15:21.493Z,4.22
2018-11-21T13:16:21.510Z,4.22
2018-11-21T13:17:21.466Z,4.26
2018-11-21T13:18:21.477Z,4.27
2018-11-21T13:19:21.432Z,4.18
2018-11-21T13:20:21.450Z,4.2
2018-11-21T13:21:21.413Z,4.14